Time;durP1;ratioP1;P1;durP2;ratioP2;P2;SDS_P1;SDS_P2;PMS_P1;PMS_P2;Temp;Humidity;BMP_temperature;BMP_pressure;BME280_temperature;BME280_humidity;BME280_pressure;Samples;Min_cycle;Max_cycle;Signal;HPM_P1;HPM_P2
2024/04/09 00:00:10;;;;;;;7.07;2.37;;;;;;;;;;4428352;32;20022;-67
2024/04/09 00:02:36;;;;;;;5.32;2.00;;;;;;;;;;4437207;32;20037;-68
2024/04/09 00:05:08;;;;;;;5.35;2.03;;;;;;;;;;4422304;32;20056;-67
2024/04/09 00:07:33;;;;;;;6.35;2.10;;;;;;;;;;4422078;32;20052;-66
2024/04/09 00:09:58;;;;;;;6.25;2.25;;;;;;;;;;4436545;32;20478;-67
2024/04/09 00:12:25;;;;;;;5.55;1.90;;;;;;;;;;4437630;32;20030;-66
2024/04/09 00:14:50;;;;;;;9.10;2.80;;;;;;;;;;4436966;32;20128;-67
2024/04/09 00:17:19;;;;;;;6.43;1.90;;;;;;;;;;4441419;32;20038;-65
2024/04/09 00:19:44;;;;;;;6.35;2.03;;;;;;;;;;4438241;32;20056;-67
2024/04/09 00:22:09;;;;;;;7.35;2.20;;;;;;;;;;4451693;32;20404;-68
2024/04/09 00:24:35;;;;;;;9.73;2.33;;;;;;;;;;4453124;32;20084;-66
2024/04/09 00:27:01;;;;;;;7.20;2.90;;;;;;;;;;4451925;32;20040;-65
2024/04/09 00:29:27;;;;;;;5.75;2.15;;;;;;;;;;4452297;32;20378;-66
2024/04/09 00:31:52;;;;;;;8.05;2.42;;;;;;;;;;4438340;32;20087;-66
2024/04/09 00:34:17;;;;;;;3.87;2.28;;;;;;;;;;4452805;32;20162;-66
2024/04/09 00:36:42;;;;;;;7.35;1.70;;;;;;;;;;4438117;32;20044;-68
2024/04/09 00:39:19;;;;;;;5.80;2.20;;;;;;;;;;4452792;32;20346;-66
2024/04/09 00:41:45;;;;;;;6.87;2.42;;;;;;;;;;4439025;32;20030;-66
2024/04/09 00:44:11;;;;;;;5.43;1.90;;;;;;;;;;4451229;32;20371;-65
2024/04/09 00:46:36;;;;;;;6.12;2.10;;;;;;;;;;4452491;32;20025;-66
2024/04/09 00:49:02;;;;;;;4.75;2.62;;;;;;;;;;4436083;32;20429;-66
2024/04/09 00:51:32;;;;;;;4.18;2.10;;;;;;;;;;4436455;32;20061;-65
2024/04/09 00:53:57;;;;;;;5.87;2.25;;;;;;;;;;4435633;32;20030;-64
2024/04/09 00:56:22;;;;;;;7.45;2.35;;;;;;;;;;4435741;32;20417;-65
2024/04/09 00:58:48;;;;;;;5.15;2.35;;;;;;;;;;4424239;32;20055;-65
2024/04/09 01:01:16;;;;;;;6.47;2.42;;;;;;;;;;4423313;32;20022;-65
2024/04/09 01:03:42;;;;;;;7.37;2.75;;;;;;;;;;4436752;32;20452;-65
2024/04/09 01:06:09;;;;;;;5.53;2.83;;;;;;;;;;4421621;32;20066;-65
2024/04/09 01:08:34;;;;;;;11.57;2.67;;;;;;;;;;4447317;32;20025;-66
2024/04/09 01:10:59;;;;;;;5.30;2.80;;;;;;;;;;4452883;32;20017;-67
2024/04/09 01:13:24;;;;;;;4.68;2.58;;;;;;;;;;4438283;32;20033;-67
2024/04/09 01:15:49;;;;;;;7.62;3.00;;;;;;;;;;4438512;32;20102;-68
2024/04/09 01:18:15;;;;;;;6.47;2.90;;;;;;;;;;4436749;32;20346;-67
2024/04/09 01:20:40;;;;;;;9.52;3.55;;;;;;;;;;4439474;32;20022;-68
2024/04/09 01:23:05;;;;;;;9.80;3.12;;;;;;;;;;4434070;32;20052;-67
2024/04/09 01:25:30;;;;;;;11.32;3.45;;;;;;;;;;4436854;32;20045;-68
2024/04/09 01:27:55;;;;;;;12.80;4.70;;;;;;;;;;4436648;32;20030;-68
2024/04/09 01:30:21;;;;;;;17.85;4.43;;;;;;;;;;4436075;32;20373;-68
2024/04/09 01:32:46;;;;;;;6.57;4.05;;;;;;;;;;4436809;32;20029;-67
2024/04/09 01:35:14;;;;;;;6.70;3.97;;;;;;;;;;4437162;32;20033;-66
2024/04/09 01:37:39;;;;;;;13.27;5.15;;;;;;;;;;4435169;32;20038;-67
2024/04/09 01:40:04;;;;;;;8.05;3.03;;;;;;;;;;4435669;32;20049;-67
2024/04/09 01:42:30;;;;;;;6.87;2.78;;;;;;;;;;4434785;32;20025;-67
2024/04/09 01:44:55;;;;;;;6.55;2.90;;;;;;;;;;4435052;32;20125;-69
2024/04/09 01:47:21;;;;;;;5.28;2.70;;;;;;;;;;4437701;32;20426;-68
2024/04/09 01:49:46;;;;;;;7.18;2.65;;;;;;;;;;4436338;32;20106;-69
2024/04/09 01:52:11;;;;;;;6.93;2.78;;;;;;;;;;4437801;32;20074;-69
2024/04/09 01:54:37;;;;;;;12.27;3.05;;;;;;;;;;4450458;32;20404;-67
2024/04/09 01:57:02;;;;;;;5.75;2.55;;;;;;;;;;4449869;32;20136;-69
2024/04/09 01:59:29;;;;;;;7.78;1.95;;;;;;;;;;4435953;32;20064;-68
2024/04/09 02:01:54;;;;;;;8.82;2.15;;;;;;;;;;4452530;32;20052;-67
2024/04/09 02:04:20;;;;;;;5.35;2.03;;;;;;;;;;4449736;32;20021;-68
2024/04/09 02:06:45;;;;;;;6.97;1.92;;;;;;;;;;4434808;32;20085;-69
2024/04/09 02:09:11;;;;;;;9.70;1.92;;;;;;;;;;4434730;32;20034;-68
2024/04/09 02:11:37;;;;;;;6.57;1.75;;;;;;;;;;4433959;32;20082;-67
2024/04/09 02:14:03;;;;;;;8.88;1.87;;;;;;;;;;4433980;32;20025;-69
2024/04/09 02:16:28;;;;;;;4.53;2.65;;;;;;;;;;4435285;32;20057;-68
2024/04/09 02:18:53;;;;;;;7.45;1.90;;;;;;;;;;4435348;32;20021;-68
2024/04/09 02:21:20;;;;;;;8.73;2.33;;;;;;;;;;4436758;32;20335;-68
2024/04/09 02:23:46;;;;;;;10.75;2.62;;;;;;;;;;4434705;32;20384;-67
2024/04/09 02:26:11;;;;;;;8.98;1.90;;;;;;;;;;4435620;32;20082;-70
2024/04/09 02:28:36;;;;;;;7.18;2.35;;;;;;;;;;4436139;32;20026;-67
2024/04/09 02:31:04;;;;;;;8.02;2.12;;;;;;;;;;4435398;32;20025;-67
2024/04/09 02:33:29;;;;;;;12.57;2.70;;;;;;;;;;4434730;32;20018;-67
2024/04/09 02:35:54;;;;;;;10.32;2.10;;;;;;;;;;4436076;32;20059;-68
2024/04/09 02:38:20;;;;;;;8.13;2.20;;;;;;;;;;4436105;32;20387;-67
2024/04/09 02:40:45;;;;;;;11.38;2.85;;;;;;;;;;4435162;32;20121;-68
2024/04/09 02:43:10;;;;;;;8.75;2.67;;;;;;;;;;4433861;32;20062;-67
2024/04/09 02:45:36;;;;;;;10.60;2.92;;;;;;;;;;4443720;32;20021;-68
2024/04/09 02:48:01;;;;;;;12.98;3.45;;;;;;;;;;4450259;32;20041;-68
2024/04/09 02:50:26;;;;;;;12.50;3.45;;;;;;;;;;4453091;32;20021;-67
2024/04/09 02:52:51;;;;;;;11.35;3.78;;;;;;;;;;4454181;32;20081;-67
2024/04/09 02:55:20;;;;;;;9.90;3.43;;;;;;;;;;4438280;32;20374;-67
2024/04/09 02:57:48;;;;;;;7.95;3.40;;;;;;;;;;4453734;32;20560;-67
2024/04/09 03:00:20;;;;;;;10.35;4.22;;;;;;;;;;4438748;32;20029;-67
2024/04/09 03:02:49;;;;;;;13.95;4.43;;;;;;;;;;4451970;32;20017;-66
2024/04/09 03:05:15;;;;;;;14.43;4.75;;;;;;;;;;4453262;32;20079;-67
2024/04/09 03:07:40;;;;;;;14.57;5.37;;;;;;;;;;4452049;32;20030;-67
2024/04/09 03:10:06;;;;;;;10.63;5.15;;;;;;;;;;4454153;32;20059;-67
2024/04/09 03:12:33;;;;;;;15.50;5.97;;;;;;;;;;4454074;32;20021;-66
2024/04/09 03:14:59;;;;;;;14.98;6.12;;;;;;;;;;4454492;32;20029;-66
2024/04/09 03:17:24;;;;;;;15.05;5.78;;;;;;;;;;4454247;32;20419;-66
2024/04/09 03:19:50;;;;;;;17.85;5.90;;;;;;;;;;4453175;32;20026;-65
2024/04/09 03:22:15;;;;;;;12.00;5.18;;;;;;;;;;4453713;32;20048;-65
2024/04/09 03:24:40;;;;;;;18.23;4.80;;;;;;;;;;4450932;32;20052;-66
2024/04/09 03:27:05;;;;;;;9.35;4.07;;;;;;;;;;4439091;32;20022;-65
2024/04/09 03:29:31;;;;;;;9.18;4.05;;;;;;;;;;4435583;32;20052;-64
2024/04/09 03:31:56;;;;;;;10.15;2.75;;;;;;;;;;4438258;32;20017;-64
2024/04/09 03:34:22;;;;;;;10.70;3.40;;;;;;;;;;4438833;32;20025;-65
2024/04/09 03:36:48;;;;;;;13.65;3.87;;;;;;;;;;4454525;32;20083;-65
2024/04/09 03:39:14;;;;;;;10.88;3.65;;;;;;;;;;4453908;32;20021;-65
2024/04/09 03:41:39;;;;;;;13.43;3.72;;;;;;;;;;4453916;32;20064;-65
2024/04/09 03:44:04;;;;;;;12.40;3.17;;;;;;;;;;4452389;32;20092;-66
2024/04/09 03:46:29;;;;;;;10.52;3.28;;;;;;;;;;4452112;32;20021;-65
2024/04/09 03:48:54;;;;;;;11.18;2.45;;;;;;;;;;4441677;32;20045;-64
2024/04/09 03:51:20;;;;;;;11.43;2.53;;;;;;;;;;4436922;32;20048;-64
2024/04/09 03:53:45;;;;;;;11.63;2.47;;;;;;;;;;4437817;32;20022;-64
2024/04/09 03:56:11;;;;;;;5.75;2.00;;;;;;;;;;4436709;32;20089;-65
2024/04/09 03:58:43;;;;;;;8.48;2.35;;;;;;;;;;4438392;32;20041;-65
2024/04/09 04:01:09;;;;;;;14.38;2.95;;;;;;;;;;4436525;32;20118;-65
2024/04/09 04:03:34;;;;;;;14.27;2.60;;;;;;;;;;4437194;32;20025;-64
2024/04/09 04:06:00;;;;;;;11.12;2.45;;;;;;;;;;4453431;32;20097;-64
2024/04/09 04:08:27;;;;;;;14.63;2.67;;;;;;;;;;4453773;32;20405;-65
2024/04/09 04:10:59;;;;;;;10.75;2.37;;;;;;;;;;4453346;32;20068;-64
2024/04/09 04:13:26;;;;;;;14.45;3.05;;;;;;;;;;4435702;32;20071;-63
2024/04/09 04:16:06;;;;;;;8.68;2.42;;;;;;;;;;4452965;32;20033;-64
2024/04/09 04:18:36;;;;;;;8.60;2.62;;;;;;;;;;4453062;32;20028;-66
2024/04/09 04:21:01;;;;;;;9.52;2.70;;;;;;;;;;4451860;32;20063;-64
2024/04/09 04:23:27;;;;;;;12.93;2.45;;;;;;;;;;4442840;32;20025;-63
2024/04/09 04:25:58;;;;;;;20.10;3.28;;;;;;;;;;4436224;32;20377;-63
2024/04/09 04:28:24;;;;;;;11.60;3.05;;;;;;;;;;4437547;32;20084;-63
2024/04/09 04:30:49;;;;;;;16.90;2.75;;;;;;;;;;4435791;32;20030;-64
2024/04/09 04:33:14;;;;;;;9.68;3.22;;;;;;;;;;4436862;32;20026;-63
2024/04/09 04:35:39;;;;;;;7.82;2.62;;;;;;;;;;4437716;32;20048;-63
2024/04/09 04:38:05;;;;;;;5.12;2.87;;;;;;;;;;4434285;32;20029;-63
2024/04/09 04:40:30;;;;;;;11.32;2.95;;;;;;;;;;4437641;32;20030;-63
2024/04/09 04:42:55;;;;;;;12.68;3.15;;;;;;;;;;4436317;32;20377;-64
2024/04/09 04:45:21;;;;;;;12.27;3.03;;;;;;;;;;4437574;32;20426;-63
2024/04/09 04:47:46;;;;;;;13.07;2.10;;;;;;;;;;4434096;32;20316;-64
2024/04/09 04:50:11;;;;;;;6.25;2.00;;;;;;;;;;4437210;32;20021;-63
2024/04/09 04:52:36;;;;;;;9.48;2.40;;;;;;;;;;4435311;32;20141;-64
2024/04/09 04:55:02;;;;;;;9.75;1.87;;;;;;;;;;4435462;32;20029;-64
2024/04/09 04:57:27;;;;;;;13.30;2.55;;;;;;;;;;4437008;32;20052;-63
2024/04/09 04:59:52;;;;;;;14.57;2.60;;;;;;;;;;4437761;32;20026;-63
2024/04/09 05:02:17;;;;;;;10.60;2.45;;;;;;;;;;4436501;32;20118;-64
2024/04/09 05:04:43;;;;;;;6.57;2.22;;;;;;;;;;4433800;32;20133;-64
2024/04/09 05:07:08;;;;;;;9.85;3.47;;;;;;;;;;4437097;32;20065;-64
2024/04/09 05:09:33;;;;;;;13.62;2.53;;;;;;;;;;4437252;32;20049;-65
2024/04/09 05:11:59;;;;;;;11.23;2.70;;;;;;;;;;4437540;32;20089;-67
2024/04/09 05:14:24;;;;;;;;;;;;;;;;;;4434633;32;20029;-69
2024/04/09 05:16:49;;;;;;;11.18;2.97;;;;;;;;;;4434254;32;19988;-67
2024/04/09 05:19:15;;;;;;;;;;;;;;;;;;4436609;32;20177;-67
2024/04/09 05:21:40;;;;;;;10.00;3.42;;;;;;;;;;4436423;32;19937;-68
2024/04/09 05:24:05;;;;;;;10.45;3.65;;;;;;;;;;4452269;32;20047;-66
2024/04/09 05:26:30;;;;;;;7.97;3.10;;;;;;;;;;4436340;32;20481;-66
2024/04/09 05:28:56;;;;;;;13.35;3.30;;;;;;;;;;4450474;32;20113;-65
2024/04/09 05:31:21;;;;;;;;;;;;;;;;;;4444144;32;20466;-67
2024/04/09 05:33:46;;;;;;;11.43;4.65;;;;;;;;;;4443042;32;19932;-65
2024/04/09 05:36:12;;;;;;;10.02;4.87;;;;;;;;;;4448286;32;20108;-65
2024/04/09 05:38:37;;;;;;;14.77;4.55;;;;;;;;;;4436559;32;20050;-65
2024/04/09 05:41:03;;;;;;;10.48;6.43;;;;;;;;;;4436689;32;20432;-66
2024/04/09 05:43:28;;;;;;;;;;;;;;;;;;4445446;32;20072;-65
2024/04/09 05:45:53;;;;;;;12.68;4.47;;;;;;;;;;4451488;32;20229;-65
2024/04/09 05:48:18;;;;;;;;;;;;;;;;;;4436554;32;20603;-65
2024/04/09 05:50:44;;;;;;;12.95;4.78;;;;;;;;;;4451301;32;19929;-66
2024/04/09 05:53:09;;;;;;;10.20;3.05;;;;;;;;;;4443154;32;20025;-65
2024/04/09 05:55:34;;;;;;;10.40;3.45;;;;;;;;;;4439759;32;20021;-66
2024/04/09 05:57:59;;;;;;;8.25;2.95;;;;;;;;;;4450763;32;20404;-64
2024/04/09 06:00:24;;;;;;;9.63;3.53;;;;;;;;;;4446407;32;20082;-65
2024/04/09 06:02:50;;;;;;;15.35;4.55;;;;;;;;;;4448552;32;20033;-66
2024/04/09 06:05:18;;;;;;;8.55;3.72;;;;;;;;;;4449438;32;20029;-66
2024/04/09 06:07:44;;;;;;;8.60;3.40;;;;;;;;;;4437574;32;20077;-66
2024/04/09 06:10:12;;;;;;;12.02;3.72;;;;;;;;;;4450806;32;20034;-65
2024/04/09 06:12:37;;;;;;;12.43;3.50;;;;;;;;;;4449936;32;20028;-66
2024/04/09 06:15:02;;;;;;;15.05;2.78;;;;;;;;;;4450149;32;20064;-65
2024/04/09 06:17:28;;;;;;;13.30;3.30;;;;;;;;;;4437245;32;20064;-64
2024/04/09 06:19:57;;;;;;;8.13;2.90;;;;;;;;;;4449575;32;20081;-66
2024/04/09 06:22:22;;;;;;;9.75;2.75;;;;;;;;;;4433503;32;20073;-65
2024/04/09 06:24:48;;;;;;;8.27;2.25;;;;;;;;;;4433686;32;20073;-64
2024/04/09 06:27:13;;;;;;;9.40;2.60;;;;;;;;;;4436123;32;20022;-66
2024/04/09 06:29:40;;;;;;;7.78;3.42;;;;;;;;;;4435947;32;20052;-65
2024/04/09 06:32:05;;;;;;;7.45;2.22;;;;;;;;;;4435740;32;20029;-65
2024/04/09 06:34:30;;;;;;;9.20;2.58;;;;;;;;;;4449591;32;20089;-64
2024/04/09 06:36:55;;;;;;;8.70;2.40;;;;;;;;;;4451554;32;20048;-66
2024/04/09 06:39:21;;;;;;;8.27;2.30;;;;;;;;;;4451336;32;20103;-64
2024/04/09 06:41:46;;;;;;;7.78;2.40;;;;;;;;;;4450973;32;20044;-64
2024/04/09 06:44:11;;;;;;;12.10;4.03;;;;;;;;;;4448757;32;20026;-64
2024/04/09 06:46:36;;;;;;;8.27;2.47;;;;;;;;;;4450657;32;20022;-64
2024/04/09 06:49:02;;;;;;;5.60;3.12;;;;;;;;;;4449243;32;20045;-65
2024/04/09 06:51:28;;;;;;;8.13;2.58;;;;;;;;;;4450468;32;20092;-64
2024/04/09 06:53:53;;;;;;;9.80;2.58;;;;;;;;;;4447736;32;20034;-64
2024/04/09 06:56:18;;;;;;;7.55;2.50;;;;;;;;;;4451315;32;20409;-64
2024/04/09 06:58:47;;;;;;;6.68;2.10;;;;;;;;;;4451173;32;20021;-64
2024/04/09 07:01:12;;;;;;;9.02;2.55;;;;;;;;;;4449755;32;20025;-63
2024/04/09 07:03:37;;;;;;;6.10;2.58;;;;;;;;;;4442603;32;20114;-63
2024/04/09 07:06:03;;;;;;;8.45;3.12;;;;;;;;;;4434667;32;20053;-64
2024/04/09 07:08:28;;;;;;;8.32;2.50;;;;;;;;;;4435923;32;20074;-64
2024/04/09 07:10:54;;;;;;;7.22;2.67;;;;;;;;;;4435542;32;20096;-64
2024/04/09 07:13:19;;;;;;;11.15;2.60;;;;;;;;;;4440276;32;20041;-64
2024/04/09 07:15:45;;;;;;;7.95;2.55;;;;;;;;;;4450879;32;20471;-62
2024/04/09 07:18:10;;;;;;;5.07;2.33;;;;;;;;;;4450026;32;20033;-61
2024/04/09 07:20:35;;;;;;;7.50;2.45;;;;;;;;;;4449667;32;20029;-62
2024/04/09 07:23:00;;;;;;;7.57;2.50;;;;;;;;;;4447443;32;20026;-62
2024/04/09 07:25:27;;;;;;;13.43;2.50;;;;;;;;;;4433840;32;20083;-62
2024/04/09 07:27:52;;;;;;;9.32;2.72;;;;;;;;;;4435037;32;20030;-62
2024/04/09 07:30:17;;;;;;;10.15;2.92;;;;;;;;;;4450938;32;20060;-63
2024/04/09 07:32:43;;;;;;;9.55;3.22;;;;;;;;;;4436001;32;20030;-63
2024/04/09 07:35:09;;;;;;;9.55;2.40;;;;;;;;;;4422065;32;20073;-63
2024/04/09 07:37:34;;;;;;;9.10;3.00;;;;;;;;;;4437535;32;20025;-63
2024/04/09 07:39:59;;;;;;;6.20;2.17;;;;;;;;;;4438048;32;20048;-62
2024/04/09 07:42:24;;;;;;;8.18;1.83;;;;;;;;;;4436858;32;20017;-63
2024/04/09 07:44:50;;;;;;;7.85;3.28;;;;;;;;;;4452199;32;20074;-62
2024/04/09 07:47:15;;;;;;;7.55;2.00;;;;;;;;;;4437951;32;20525;-63
2024/04/09 07:49:41;;;;;;;6.05;2.03;;;;;;;;;;4439468;32;20041;-63
2024/04/09 07:52:06;;;;;;;5.10;1.70;;;;;;;;;;4437984;32;20029;-64
2024/04/09 07:54:31;;;;;;;5.32;2.15;;;;;;;;;;4452857;32;20034;-62
2024/04/09 07:56:56;;;;;;;;;;;;;;;;;;4438431;32;20021;-62
2024/04/09 07:59:22;;;;;;;8.30;2.20;;;;;;;;;;4453468;32;19932;-63
2024/04/09 08:01:47;;;;;;;8.18;2.42;;;;;;;;;;4438721;32;20479;-63
2024/04/09 08:04:13;;;;;;;;;;;;;;;;;;4444439;32;20383;-63
2024/04/09 08:06:38;;;;;;;4.53;1.80;;;;;;;;;;4437945;32;19972;-63
2024/04/09 08:09:04;;;;;;;7.82;2.17;;;;;;;;;;4436230;32;20113;-62
2024/04/09 08:11:30;;;;;;;6.57;1.52;;;;;;;;;;4436110;32;20052;-62
2024/04/09 08:13:55;;;;;;;4.80;1.73;;;;;;;;;;4440332;32;20100;-62
2024/04/09 08:16:20;;;;;;;5.97;1.40;;;;;;;;;;4437962;32;20026;-62
2024/04/09 08:18:45;;;;;;;10.15;2.35;;;;;;;;;;4437417;32;20464;-62
2024/04/09 08:21:10;;;;;;;6.43;1.98;;;;;;;;;;4436939;32;20129;-63
2024/04/09 08:23:36;;;;;;;6.03;2.05;;;;;;;;;;4441306;32;20025;-62
2024/04/09 08:26:01;;;;;;;6.78;1.77;;;;;;;;;;4451913;32;20026;-63
2024/04/09 08:28:26;;;;;;;92.00;84.43;;;;;;;;;;4452240;32;20296;-63
2024/04/09 08:30:52;;;;;;;5.90;1.52;;;;;;;;;;4451574;32;20037;-62
2024/04/09 08:33:17;;;;;;;2.42;1.27;;;;;;;;;;4450636;32;20051;-62
2024/04/09 08:35:46;;;;;;;5.32;1.80;;;;;;;;;;4437098;32;20437;-63
2024/04/09 08:38:12;;;;;;;4.55;1.77;;;;;;;;;;4437609;32;20022;-63
2024/04/09 08:40:38;;;;;;;7.03;1.98;;;;;;;;;;4436932;32;20030;-63
2024/04/09 08:43:03;;;;;;;4.75;1.90;;;;;;;;;;4437104;32;20055;-63
2024/04/09 08:45:29;;;;;;;12.35;1.75;;;;;;;;;;4452928;32;20025;-63
2024/04/09 08:47:54;;;;;;;;;;;;;;;;;;4451430;32;20419;-66
2024/04/09 08:50:19;;;;;;;5.97;1.90;;;;;;;;;;4451158;32;20302;-64
2024/04/09 08:52:46;;;;;;;8.02;1.70;;;;;;;;;;4451259;32;20025;-62
2024/04/09 08:55:12;;;;;;;4.95;1.95;;;;;;;;;;4436891;32;20393;-61
2024/04/09 08:57:37;;;;;;;;;;;;;;;;;;4434043;32;20034;-63
2024/04/09 09:00:05;;;;;;;7.47;1.90;;;;;;;;;;4434488;32;19952;-63
2024/04/09 09:02:31;;;;;;;9.52;3.72;;;;;;;;;;4436441;32;20029;-62
2024/04/09 09:04:56;;;;;;;3.67;1.50;;;;;;;;;;4437533;32;20059;-62
2024/04/09 09:07:24;;;;;;;5.57;1.90;;;;;;;;;;4452618;32;20025;-62
2024/04/09 09:09:50;;;;;;;5.35;1.75;;;;;;;;;;4438547;32;20030;-62
2024/04/09 09:12:15;;;;;;;7.32;2.78;;;;;;;;;;4451081;32;20021;-63
2024/04/09 09:14:54;;;;;;;8.82;5.18;;;;;;;;;;4427396;32;20078;-62
2024/04/09 09:17:20;;;;;;;5.03;1.70;;;;;;;;;;4437038;32;20044;-64
2024/04/09 09:19:45;;;;;;;;;;;;;;;;;;4436896;32;20082;-63
2024/04/09 09:22:11;;;;;;;12.27;2.30;;;;;;;;;;4422682;32;19940;-63
2024/04/09 09:24:37;;;;;;;7.18;1.67;;;;;;;;;;4443116;32;20026;-63
2024/04/09 09:27:07;;;;;;;7.87;1.77;;;;;;;;;;4450069;32;20074;-64
2024/04/09 09:29:33;;;;;;;9.20;1.70;;;;;;;;;;4450439;32;20153;-63
2024/04/09 09:31:59;;;;;;;3.05;2.05;;;;;;;;;;4450012;32;20072;-64
2024/04/09 09:34:32;;;;;;;6.53;1.90;;;;;;;;;;4445241;32;20025;-63
2024/04/09 09:37:00;;;;;;;7.28;1.98;;;;;;;;;;4435195;32;20044;-62
2024/04/09 09:39:27;;;;;;;4.07;1.70;;;;;;;;;;4435198;32;20025;-62
2024/04/09 09:41:54;;;;;;;4.43;1.50;;;;;;;;;;4433133;32;20365;-63
2024/04/09 09:44:20;;;;;;;7.03;1.60;;;;;;;;;;4435011;32;20021;-63
2024/04/09 09:46:47;;;;;;;5.22;1.58;;;;;;;;;;4435975;32;20085;-64
2024/04/09 09:49:12;;;;;;;6.10;2.10;;;;;;;;;;4436425;32;20454;-62
2024/04/09 09:51:38;;;;;;;4.15;1.40;;;;;;;;;;4434705;32;20025;-62
2024/04/09 09:54:03;;;;;;;;;;;;;;;;;;4423758;32;20018;-63
2024/04/09 09:56:29;;;;;;;12.60;3.25;;;;;;;;;;4452051;32;19983;-64
2024/04/09 09:58:55;;;;;;;6.50;2.37;;;;;;;;;;4449945;32;20030;-64
2024/04/09 10:01:20;;;;;;;;;;;;;;;;;;4450225;32;20119;-64
2024/04/09 10:03:45;;;;;;;4.53;1.50;;;;;;;;;;4449893;32;19933;-63
2024/04/09 10:06:11;;;;;;;6.28;1.80;;;;;;;;;;4433840;32;20051;-64
2024/04/09 10:08:41;;;;;;;4.05;2.08;;;;;;;;;;4436529;32;20421;-63
2024/04/09 10:11:06;;;;;;;4.60;1.55;;;;;;;;;;4435950;32;20052;-63
2024/04/09 10:13:31;;;;;;;8.40;1.48;;;;;;;;;;4436040;32;20215;-63
2024/04/09 10:15:58;;;;;;;2.47;1.42;;;;;;;;;;4450821;32;20045;-63
2024/04/09 10:18:42;;;;;;;4.78;2.00;;;;;;;;;;4451562;32;20021;-62
2024/04/09 10:21:07;;;;;;;5.53;1.77;;;;;;;;;;4451423;32;20044;-62
2024/04/09 10:23:39;;;;;;;8.48;1.70;;;;;;;;;;4450710;32;20021;-62
2024/04/09 10:26:05;;;;;;;7.47;1.75;;;;;;;;;;4420263;32;20323;-63
2024/04/09 10:28:31;;;;;;;6.57;2.28;;;;;;;;;;4434108;32;20068;-63
2024/04/09 10:31:01;;;;;;;6.20;2.10;;;;;;;;;;4435715;32;20415;-62
2024/04/09 10:33:33;;;;;;;6.95;1.87;;;;;;;;;;4434695;32;20072;-64
2024/04/09 10:35:58;;;;;;;6.30;1.85;;;;;;;;;;4434114;32;20209;-65
2024/04/09 10:38:24;;;;;;;12.45;2.00;;;;;;;;;;4447188;32;20033;-62
2024/04/09 10:40:49;;;;;;;6.32;2.05;;;;;;;;;;4451177;32;20438;-63
2024/04/09 10:43:15;;;;;;;5.20;1.87;;;;;;;;;;4444032;32;20047;-63
2024/04/09 10:45:40;;;;;;;6.05;2.95;;;;;;;;;;4438641;32;20048;-63
2024/04/09 10:48:07;;;;;;;4.95;2.30;;;;;;;;;;4449395;32;20106;-62
2024/04/09 10:50:32;;;;;;;6.87;1.67;;;;;;;;;;4436668;32;20409;-62
2024/04/09 10:52:58;;;;;;;4.72;1.65;;;;;;;;;;4450939;32;20127;-62
2024/04/09 10:55:23;;;;;;;5.75;2.22;;;;;;;;;;4438902;32;20402;-63
2024/04/09 10:57:52;;;;;;;8.43;1.90;;;;;;;;;;4447717;32;20426;-63
2024/04/09 11:00:18;;;;;;;6.43;2.35;;;;;;;;;;4449456;32;20063;-62
2024/04/09 11:02:43;;;;;;;4.40;1.58;;;;;;;;;;4450800;32;20033;-64
2024/04/09 11:05:09;;;;;;;3.97;1.60;;;;;;;;;;4441539;32;20126;-63
2024/04/09 11:07:37;;;;;;;4.90;1.83;;;;;;;;;;4446126;32;20496;-63
2024/04/09 11:10:03;;;;;;;6.95;1.75;;;;;;;;;;4450000;32;20336;-62
2024/04/09 11:12:30;;;;;;;6.18;1.70;;;;;;;;;;4444068;32;20091;-62
2024/04/09 11:14:56;;;;;;;4.05;1.55;;;;;;;;;;4444842;32;20026;-63
2024/04/09 11:17:22;;;;;;;4.00;1.50;;;;;;;;;;4451831;32;20021;-63
2024/04/09 11:19:47;;;;;;;5.53;1.60;;;;;;;;;;4452657;32;20386;-64
2024/04/09 11:22:12;;;;;;;5.70;1.70;;;;;;;;;;4452085;32;20063;-63
2024/04/09 11:24:37;;;;;;;3.47;1.58;;;;;;;;;;4452939;32;20141;-64
2024/04/09 11:27:04;;;;;;;8.10;2.85;;;;;;;;;;4451572;32;20078;-62
2024/04/09 11:29:30;;;;;;;4.87;1.75;;;;;;;;;;4453923;32;20025;-62
2024/04/09 11:32:00;;;;;;;8.52;2.05;;;;;;;;;;4446021;32;20448;-63
2024/04/09 11:34:29;;;;;;;10.73;1.75;;;;;;;;;;4439775;32;20021;-63
2024/04/09 11:36:55;;;;;;;3.42;1.60;;;;;;;;;;4453724;32;20029;-64
2024/04/09 11:39:23;;;;;;;4.75;1.55;;;;;;;;;;4453356;32;20017;-63
2024/04/09 11:41:52;;;;;;;5.97;2.15;;;;;;;;;;4449045;32;20180;-63
2024/04/09 11:44:24;;;;;;;5.80;1.60;;;;;;;;;;4438945;32;20697;-64
2024/04/09 11:46:49;;;;;;;6.50;1.90;;;;;;;;;;4453208;32;20132;-63
2024/04/09 11:49:15;;;;;;;6.05;1.70;;;;;;;;;;4452543;32;20047;-63
2024/04/09 11:51:40;;;;;;;10.70;2.00;;;;;;;;;;4450100;32;20112;-64
2024/04/09 11:54:06;;;;;;;6.43;2.00;;;;;;;;;;4436460;32;20098;-64
2024/04/09 11:56:32;;;;;;;4.22;3.83;;;;;;;;;;4452755;32;20061;-64
2024/04/09 11:58:57;;;;;;;4.12;1.30;;;;;;;;;;4453627;32;20088;-63
2024/04/09 12:01:22;;;;;;;5.65;2.17;;;;;;;;;;4451307;32;20097;-62
2024/04/09 12:03:48;;;;;;;4.03;1.75;;;;;;;;;;4439314;32;20037;-62
2024/04/09 12:06:13;;;;;;;3.35;1.23;;;;;;;;;;4440226;32;20026;-65
2024/04/09 12:08:38;;;;;;;4.22;2.40;;;;;;;;;;4451748;32;20147;-62
2024/04/09 12:11:03;;;;;;;5.60;1.40;;;;;;;;;;4451315;32;20034;-64
2024/04/09 12:13:28;;;;;;;4.40;1.65;;;;;;;;;;4453692;32;20085;-63
2024/04/09 12:15:54;;;;;;;5.00;1.55;;;;;;;;;;4448941;32;20033;-63
2024/04/09 12:18:19;;;;;;;5.40;1.90;;;;;;;;;;4445551;32;20098;-62
2024/04/09 12:20:44;;;;;;;4.10;1.23;;;;;;;;;;4445307;32;20090;-63
2024/04/09 12:23:10;;;;;;;2.40;1.40;;;;;;;;;;4448898;32;20424;-65
2024/04/09 12:25:35;;;;;;;8.30;2.50;;;;;;;;;;4452552;32;20029;-62
2024/04/09 12:28:01;;;;;;;4.68;1.55;;;;;;;;;;4451707;32;20055;-62
2024/04/09 12:30:26;;;;;;;3.53;2.12;;;;;;;;;;4452617;32;20080;-62
2024/04/09 12:32:51;;;;;;;3.25;1.98;;;;;;;;;;4452808;32;20067;-63
2024/04/09 12:35:17;;;;;;;8.18;1.92;;;;;;;;;;4447725;32;20071;-62
2024/04/09 12:37:42;;;;;;;3.33;1.52;;;;;;;;;;4437030;32;20137;-64
2024/04/09 12:40:11;;;;;;;10.43;3.10;;;;;;;;;;4436422;32;20346;-64
2024/04/09 12:42:36;;;;;;;3.42;1.50;;;;;;;;;;4437543;32;20025;-63
2024/04/09 12:45:01;;;;;;;5.62;2.30;;;;;;;;;;4449011;32;20106;-63
2024/04/09 12:47:26;;;;;;;5.90;2.35;;;;;;;;;;4434800;32;20057;-64
2024/04/09 12:49:52;;;;;;;5.95;1.70;;;;;;;;;;4450716;32;20365;-64
2024/04/09 12:52:18;;;;;;;5.22;2.95;;;;;;;;;;4436508;32;20041;-63
2024/04/09 12:54:43;;;;;;;5.60;1.95;;;;;;;;;;4435318;32;20346;-63
2024/04/09 12:57:08;;;;;;;5.45;1.75;;;;;;;;;;4448990;32;20369;-63
2024/04/09 12:59:34;;;;;;;5.87;1.60;;;;;;;;;;4434928;32;20128;-63
2024/04/09 13:02:00;;;;;;;6.35;1.90;;;;;;;;;;4451874;32;20092;-63
2024/04/09 13:04:27;;;;;;;2.25;1.50;;;;;;;;;;4442225;32;20021;-64
2024/04/09 13:06:53;;;;;;;5.15;1.73;;;;;;;;;;4434851;32;20047;-62
2024/04/09 13:09:18;;;;;;;8.30;2.53;;;;;;;;;;4435990;32;20060;-63
2024/04/09 13:11:43;;;;;;;8.02;2.47;;;;;;;;;;4434006;32;20051;-63
2024/04/09 13:14:08;;;;;;;6.15;3.00;;;;;;;;;;4443821;32;20026;-63
2024/04/09 13:16:38;;;;;;;7.75;6.70;;;;;;;;;;4452344;32;20020;-63
2024/04/09 13:19:04;;;;;;;5.25;2.25;;;;;;;;;;4451872;32;20370;-63
2024/04/09 13:21:29;;;;;;;5.05;2.25;;;;;;;;;;4450681;32;20089;-64
2024/04/09 13:23:54;;;;;;;5.32;2.12;;;;;;;;;;4430641;32;20209;-65
2024/04/09 13:26:20;;;;;;;7.12;4.18;;;;;;;;;;4435051;32;20026;-64
2024/04/09 13:28:45;;;;;;;10.93;8.30;;;;;;;;;;4433505;32;20180;-64
2024/04/09 13:31:10;;;;;;;6.55;2.60;;;;;;;;;;4434630;32;20053;-63
2024/04/09 13:33:36;;;;;;;11.70;8.30;;;;;;;;;;4439643;32;20055;-63
2024/04/09 13:36:01;;;;;;;9.60;3.10;;;;;;;;;;4452136;32;20097;-64
2024/04/09 13:38:26;;;;;;;6.72;3.22;;;;;;;;;;4451668;32;20026;-63
2024/04/09 13:40:52;;;;;;;7.32;2.78;;;;;;;;;;4450453;32;20021;-64
2024/04/09 13:43:17;;;;;;;4.93;2.72;;;;;;;;;;4436125;32;20017;-64
2024/04/09 13:45:43;;;;;;;8.93;5.20;;;;;;;;;;4436478;32;20033;-64
2024/04/09 13:48:08;;;;;;;4.62;2.53;;;;;;;;;;4434062;32;20393;-64
2024/04/09 13:50:34;;;;;;;10.63;9.30;;;;;;;;;;4434917;32;20056;-63
2024/04/09 13:52:59;;;;;;;5.78;2.08;;;;;;;;;;4442489;32;20053;-63
2024/04/09 13:55:25;;;;;;;6.03;4.18;;;;;;;;;;4443198;32;20056;-65
2024/04/09 13:57:52;;;;;;;7.62;2.05;;;;;;;;;;4440984;32;20030;-63
2024/04/09 14:00:17;;;;;;;6.65;2.08;;;;;;;;;;4435612;32;20026;-63
2024/04/09 14:02:43;;;;;;;4.62;2.33;;;;;;;;;;4436238;32;20071;-63
2024/04/09 14:05:08;;;;;;;5.70;2.17;;;;;;;;;;4435843;32;20061;-62
2024/04/09 14:07:33;;;;;;;7.87;3.75;;;;;;;;;;4434680;32;20160;-62
2024/04/09 14:09:58;;;;;;;16.30;5.15;;;;;;;;;;4436387;32;20090;-68
2024/04/09 14:12:24;;;;;;;6.22;2.33;;;;;;;;;;4435882;32;20026;-68
2024/04/09 14:14:49;;;;;;;6.28;2.40;;;;;;;;;;4428904;32;20030;-69
2024/04/09 14:17:14;;;;;;;14.48;11.02;;;;;;;;;;4436002;32;20021;-68
2024/04/09 14:19:40;;;;;;;8.45;2.80;;;;;;;;;;4429778;32;20072;-67
2024/04/09 14:22:05;;;;;;;8.90;4.15;;;;;;;;;;4449884;32;20029;-66
2024/04/09 14:24:30;;;;;;;6.95;3.60;;;;;;;;;;4431867;32;20033;-67
2024/04/09 14:26:56;;;;;;;11.10;7.78;;;;;;;;;;4437122;32;20036;-67
2024/04/09 14:29:21;;;;;;;5.07;2.22;;;;;;;;;;4449488;32;20048;-66
2024/04/09 14:31:46;;;;;;;4.75;3.20;;;;;;;;;;4435446;32;20029;-65
2024/04/09 14:34:11;;;;;;;6.18;2.90;;;;;;;;;;4444812;32;20410;-65